createdAt,value
2023-04-16T00:00:54.034Z,93.13
2023-04-16T00:01:54.071Z,92.82
2023-04-16T00:02:54.103Z,93.13
2023-04-16T00:03:54.194Z,93.13
2023-04-16T00:04:55.820Z,93.08
2023-04-16T00:05:53.934Z,92.72
2023-04-16T00:06:53.915Z,92.31
2023-04-16T00:07:53.909Z,92.31
2023-04-16T00:08:53.897Z,92.27
2023-04-16T00:09:53.907Z,92.47
2023-04-16T00:10:53.886Z,92.06
2023-04-16T00:11:53.871Z,92.31
2023-04-16T00:12:53.858Z,92.51
2023-04-16T00:13:53.861Z,92.31
2023-04-16T00:14:53.872Z,92.31
2023-04-16T00:15:53.829Z,92.10
2023-04-16T00:16:53.909Z,92.21
2023-04-16T00:17:53.826Z,92.21
2023-04-16T00:18:53.798Z,92.10
2023-04-16T00:19:53.836Z,91.90
2023-04-16T00:20:53.780Z,92.00
2023-04-16T00:21:53.779Z,92.21
2023-04-16T00:22:53.764Z,91.90
2023-04-16T00:23:53.760Z,92.10
2023-04-16T00:24:53.846Z,91.90
2023-04-16T00:25:53.845Z,92.00
2023-04-16T00:26:53.727Z,92.31
2023-04-16T00:27:53.713Z,92.41
2023-04-16T00:28:53.703Z,92.10
2023-04-16T00:29:53.829Z,91.90
2023-04-16T00:30:53.709Z,91.69
2023-04-16T00:31:53.677Z,92.21
2023-04-16T00:32:53.665Z,91.80
2023-04-16T00:33:53.672Z,92.21
2023-04-16T00:34:53.750Z,92.21
2023-04-16T00:35:53.632Z,91.90
2023-04-16T00:36:53.629Z,92.00
2023-04-16T00:37:53.629Z,92.51
2023-04-16T00:38:53.596Z,92.31
2023-04-16T00:39:53.633Z,92.41
2023-04-16T00:40:53.584Z,92.41
2023-04-16T00:41:53.601Z,92.41
2023-04-16T00:42:53.569Z,92.82
2023-04-16T00:43:53.558Z,93.02
2023-04-16T00:44:53.571Z,93.33
2023-04-16T00:45:53.552Z,93.07
2023-04-16T00:46:53.532Z,93.23
2023-04-16T00:47:53.547Z,93.02
2023-04-16T00:48:53.510Z,93.02
2023-04-16T00:49:53.519Z,93.33
2023-04-16T00:50:53.487Z,93.38
2023-04-16T00:51:53.478Z,92.97
2023-04-16T00:52:53.503Z,93.44
2023-04-16T00:53:53.469Z,93.17
2023-04-16T00:54:53.471Z,92.86
2023-04-16T00:55:53.471Z,93.27
2023-04-16T00:56:53.440Z,93.38
2023-04-16T00:57:53.444Z,93.79
2023-04-16T00:58:53.401Z,93.38
2023-04-16T00:59:53.404Z,94.40
2023-04-16T01:00:53.380Z,94.40
2023-04-16T01:01:53.424Z,94.30
2023-04-16T01:02:53.478Z,94.46
2023-04-16T01:03:53.491Z,94.40
2023-04-16T01:04:53.365Z,94.05
2023-04-16T01:05:53.334Z,94.20
2023-04-16T01:06:53.333Z,94.20
2023-04-16T01:07:53.334Z,94.20
2023-04-16T01:08:53.308Z,94.05
2023-04-16T01:09:53.323Z,94.10
2023-04-16T01:10:53.293Z,94.40
2023-04-16T01:11:53.283Z,93.48
2023-04-16T01:12:53.283Z,93.99
2023-04-16T01:13:53.263Z,93.99
2023-04-16T01:14:53.259Z,94.10
2023-04-16T01:15:53.290Z,93.89
2023-04-16T01:16:53.249Z,93.89
2023-04-16T01:17:53.268Z,93.89
2023-04-16T01:18:53.216Z,94.20
2023-04-16T01:19:53.229Z,94.10
2023-04-16T01:20:53.191Z,93.48
2023-04-16T01:21:53.180Z,94.14
2023-04-16T01:22:53.165Z,93.48
2023-04-16T01:23:53.160Z,93.59
2023-04-16T01:24:53.203Z,93.99
2023-04-16T01:25:53.131Z,93.59
2023-04-16T01:26:53.123Z,94.24
2023-04-16T01:27:53.114Z,94.20
2023-04-16T01:28:53.109Z,93.63
2023-04-16T01:29:53.147Z,93.89
2023-04-16T01:30:53.080Z,93.73
2023-04-16T01:31:53.142Z,94.10
2023-04-16T01:32:53.174Z,94.10
2023-04-16T01:33:53.056Z,94.20
2023-04-16T01:34:53.075Z,94.30
2023-04-16T01:35:53.043Z,93.89
2023-04-16T01:36:53.040Z,94.20
2023-04-16T01:37:53.021Z,94.30
2023-04-16T01:38:56.276Z,94.20
2023-04-16T01:40:26.556Z,94.20
2023-04-16T01:40:52.989Z,94.24
2023-04-16T01:41:52.982Z,94.14
2023-04-16T01:42:52.968Z,93.99
2023-04-16T01:43:52.963Z,93.89
2023-04-16T01:44:53.000Z,93.93
2023-04-16T01:45:52.943Z,93.79
2023-04-16T01:46:52.965Z,94.30
2023-04-16T01:47:52.970Z,93.99
2023-04-16T01:48:52.911Z,94.30
2023-04-16T01:49:52.959Z,94.10
2023-04-16T01:50:52.899Z,94.30
2023-04-16T01:51:52.919Z,94.24
2023-04-16T01:52:52.876Z,94.14
2023-04-16T01:53:52.864Z,94.20
2023-04-16T01:54:52.896Z,94.40
2023-04-16T01:55:52.870Z,94.30
2023-04-16T01:56:52.840Z,94.30
2023-04-16T01:57:52.827Z,94.20
2023-04-16T01:58:52.846Z,94.24
2023-04-16T01:59:52.847Z,94.20
2023-04-16T02:00:52.939Z,94.30
2023-04-16T02:01:52.939Z,94.40
2023-04-16T02:02:52.954Z,94.20
2023-04-16T02:03:52.950Z,94.40
2023-04-16T02:04:52.790Z,93.93
2023-04-16T02:05:52.746Z,94.45
2023-04-16T02:06:52.740Z,94.30
2023-04-16T02:07:52.736Z,94.30
2023-04-16T02:08:52.702Z,94.20
2023-04-16T02:09:52.731Z,94.20
2023-04-16T02:10:52.714Z,94.40
2023-04-16T02:11:52.700Z,93.07
2023-04-16T02:12:52.674Z,93.01
2023-04-16T02:13:52.689Z,93.27
2023-04-16T02:14:52.658Z,92.86
2023-04-16T02:15:52.702Z,92.86
2023-04-16T02:16:52.664Z,92.97
2023-04-16T02:17:52.692Z,92.97
2023-04-16T02:18:52.620Z,92.66
2023-04-16T02:19:52.625Z,92.66
2023-04-16T02:20:52.598Z,92.76
2023-04-16T02:21:52.586Z,92.76
2023-04-16T02:22:52.583Z,92.76
2023-04-16T02:23:52.592Z,92.25
2023-04-16T02:24:52.568Z,92.97
2023-04-16T02:25:52.540Z,92.97
2023-04-16T02:26:52.547Z,93.17
2023-04-16T02:27:52.530Z,92.76
2023-04-16T02:28:52.511Z,93.17
2023-04-16T02:29:52.509Z,94.40
2023-04-16T02:30:52.496Z,94.14
2023-04-16T02:31:52.497Z,94.20
2023-04-16T02:32:52.521Z,93.99
2023-04-16T02:33:52.471Z,93.93
2023-04-16T02:34:52.474Z,94.51
2023-04-16T02:35:52.444Z,94.55
2023-04-16T02:36:52.434Z,94.85
2023-04-16T02:37:52.417Z,94.76
2023-04-16T02:38:52.441Z,95.06
2023-04-16T02:39:52.443Z,94.85
2023-04-16T02:40:52.402Z,94.85
2023-04-16T02:41:52.411Z,95.47
2023-04-16T02:42:52.378Z,95.37
2023-04-16T02:43:52.370Z,95.57
2023-04-16T02:44:52.405Z,95.17
2023-04-16T02:45:52.361Z,95.37
2023-04-16T02:46:52.332Z,95.47
2023-04-16T02:47:52.362Z,95.37
2023-04-16T02:48:52.319Z,95.23
2023-04-16T02:49:52.325Z,95.27
2023-04-16T02:50:52.312Z,95.53
2023-04-16T02:51:52.304Z,95.78
2023-04-16T02:52:52.282Z,95.57
2023-04-16T02:53:52.271Z,95.57
2023-04-16T02:54:52.259Z,95.57
2023-04-16T02:55:52.292Z,96.04
2023-04-16T02:56:52.245Z,95.57
2023-04-16T02:57:52.241Z,96.40
2023-04-16T02:58:52.225Z,96.60
2023-04-16T02:59:52.230Z,96.30
2023-04-16T03:00:52.212Z,96.50
2023-04-16T03:01:52.318Z,96.30
2023-04-16T03:02:52.197Z,96.40
2023-04-16T03:03:52.200Z,96.30
2023-04-16T03:04:52.181Z,96.40
2023-04-16T03:05:53.017Z,96.09
2023-04-16T03:06:52.142Z,96.70
2023-04-16T03:07:52.124Z,97.22
2023-04-16T03:08:52.119Z,97.42
2023-04-16T03:09:52.130Z,96.91
2023-04-16T03:10:52.104Z,97.42
2023-04-16T03:11:52.094Z,97.32
2023-04-16T03:12:52.082Z,97.12
2023-04-16T03:13:52.072Z,97.78
2023-04-16T03:14:52.083Z,97.94
2023-04-16T03:15:52.114Z,98.29
2023-04-16T03:16:52.046Z,97.57
2023-04-16T03:17:52.073Z,98.29
2023-04-16T03:18:52.026Z,98.39
2023-04-16T03:19:52.037Z,98.70
2023-04-16T03:20:52.001Z,99.63
2023-04-16T03:21:52.001Z,99.52
2023-04-16T03:22:51.985Z,99.16
2023-04-16T03:23:51.984Z,99.42
2023-04-16T03:24:51.997Z,99.67
2023-04-16T03:25:51.969Z,99.83
2023-04-16T03:26:51.960Z,99.32
2023-04-16T03:27:51.943Z,99.77
2023-04-16T03:28:51.935Z,99.88
2023-04-16T03:29:51.954Z,99.99
2023-04-16T03:30:52.010Z,99.88
2023-04-16T03:31:51.916Z,99.57
2023-04-16T03:32:51.963Z,99.99
2023-04-16T03:33:51.892Z,99.99
2023-04-16T03:34:51.900Z,99.99
2023-04-16T03:35:51.855Z,99.99
2023-04-16T03:36:51.854Z,99.99
2023-04-16T03:37:51.847Z,99.99
2023-04-16T03:38:51.837Z,99.99
2023-04-16T03:39:51.848Z,99.88
2023-04-16T03:40:51.821Z,99.99
2023-04-16T03:41:51.809Z,99.99
2023-04-16T03:42:51.802Z,99.99
2023-04-16T03:43:51.786Z,99.99
2023-04-16T03:44:51.803Z,99.99
2023-04-16T03:45:51.786Z,99.99
2023-04-16T03:46:51.821Z,99.99
2023-04-16T03:47:51.775Z,99.99
2023-04-16T03:48:51.735Z,99.99
2023-04-16T03:49:51.770Z,99.99
2023-04-16T03:50:51.713Z,99.99
2023-04-16T03:51:51.704Z,99.99
2023-04-16T03:52:51.698Z,99.99
2023-04-16T03:53:51.682Z,99.99
2023-04-16T03:54:51.700Z,99.99
2023-04-16T03:55:51.675Z,99.99
2023-04-16T03:56:51.654Z,99.99
2023-04-16T03:57:51.648Z,99.99
2023-04-16T03:58:51.643Z,99.99
2023-04-16T03:59:51.648Z,99.99
2023-04-16T04:00:51.609Z,99.99
2023-04-16T04:01:51.675Z,99.99
2023-04-16T04:02:51.691Z,99.99
2023-04-16T04:03:51.882Z,99.99
2023-04-16T04:04:51.609Z,99.99
2023-04-16T04:05:51.564Z,99.73
2023-04-16T04:06:51.567Z,99.99
2023-04-16T04:07:51.545Z,99.93
2023-04-16T04:08:51.559Z,99.99
2023-04-16T04:09:51.560Z,99.99
2023-04-16T04:10:51.517Z,99.99
2023-04-16T04:11:51.519Z,99.98
2023-04-16T04:12:51.498Z,99.98
2023-04-16T04:13:51.491Z,99.99
2023-04-16T04:14:51.515Z,99.99
2023-04-16T04:15:51.575Z,99.99
2023-04-16T04:16:51.456Z,99.99
2023-04-16T04:17:51.471Z,99.99
2023-04-16T04:18:51.437Z,99.99
2023-04-16T04:20:00.844Z,99.99
2023-04-16T04:20:53.420Z,99.88
2023-04-16T04:21:51.406Z,99.77
2023-04-16T04:22:51.407Z,99.99
2023-04-16T04:23:51.386Z,99.32
2023-04-16T04:24:52.404Z,98.91
2023-04-16T04:25:51.433Z,99.26
2023-04-16T04:26:51.364Z,99.63
2023-04-16T04:27:51.377Z,99.67
2023-04-16T04:28:51.348Z,99.63
2023-04-16T04:29:51.345Z,99.57
2023-04-16T04:30:51.320Z,99.99
2023-04-16T04:31:51.326Z,99.88
2023-04-16T04:32:51.432Z,99.73
2023-04-16T04:33:51.292Z,99.63
2023-04-16T04:34:51.299Z,99.57
2023-04-16T04:35:51.275Z,99.57
2023-04-16T04:36:51.270Z,99.42
2023-04-16T04:37:51.239Z,99.77
2023-04-16T04:38:51.246Z,99.77
2023-04-16T04:39:51.254Z,99.21
2023-04-16T04:40:51.222Z,99.47
2023-04-16T04:41:51.234Z,99.83
2023-04-16T04:42:51.189Z,99.99
2023-04-16T04:43:51.190Z,99.52
2023-04-16T04:44:51.228Z,99.42
2023-04-16T04:45:51.224Z,99.42
2023-04-16T04:46:51.157Z,99.11
2023-04-16T04:47:51.145Z,99.52
2023-04-16T04:48:52.190Z,99.52
2023-04-16T04:49:51.128Z,99.37
2023-04-16T04:50:51.141Z,99.32
2023-04-16T04:51:51.112Z,99.32
2023-04-16T04:52:51.102Z,99.32
2023-04-16T04:53:51.078Z,99.67
2023-04-16T04:54:51.073Z,99.52
2023-04-16T04:55:54.062Z,99.67
2023-04-16T04:56:53.070Z,98.91
2023-04-16T04:57:51.044Z,98.70
2023-04-16T04:58:51.036Z,98.60
2023-04-16T04:59:51.022Z,98.33
2023-04-16T05:00:51.094Z,98.39
2023-04-16T05:01:51.011Z,98.80
2023-04-16T05:02:51.088Z,98.19
2023-04-16T05:03:51.091Z,98.60
2023-04-16T05:04:50.991Z,98.39
2023-04-16T05:05:50.995Z,98.44
2023-04-16T05:06:50.956Z,98.60
2023-04-16T05:07:50.945Z,98.29
2023-04-16T05:08:50.938Z,97.57
2023-04-16T05:09:50.920Z,97.78
2023-04-16T05:10:50.925Z,98.29
2023-04-16T05:11:50.897Z,98.19
2023-04-16T05:12:51.893Z,97.99
2023-04-16T05:13:50.893Z,98.08
2023-04-16T05:14:50.881Z,97.88
2023-04-16T05:15:50.885Z,98.08
2023-04-16T05:16:50.937Z,97.99
2023-04-16T05:17:50.885Z,97.99
2023-04-16T05:18:50.841Z,97.27
2023-04-16T05:19:50.825Z,97.67
2023-04-16T05:20:50.840Z,96.85
2023-04-16T05:21:50.806Z,96.75
2023-04-16T05:22:50.797Z,97.16
2023-04-16T05:23:50.789Z,97.37
2023-04-16T05:24:50.778Z,97.47
2023-04-16T05:25:50.780Z,96.95
2023-04-16T05:26:50.761Z,96.85
2023-04-16T05:27:50.786Z,96.75
2023-04-16T05:28:50.747Z,96.65
2023-04-16T05:29:50.720Z,96.55
2023-04-16T05:30:50.744Z,96.75
2023-04-16T05:31:50.706Z,96.55
2023-04-16T05:32:50.720Z,96.44
2023-04-16T05:33:50.679Z,96.34
2023-04-16T05:34:50.678Z,96.14
2023-04-16T05:35:50.681Z,95.52
2023-04-16T05:36:50.665Z,95.21
2023-04-16T05:37:50.670Z,95.10
2023-04-16T05:38:50.636Z,94.90
2023-04-16T05:39:50.627Z,95.10
2023-04-16T05:40:50.640Z,94.29
2023-04-16T05:41:50.611Z,93.98
2023-04-16T05:42:50.591Z,94.08
2023-04-16T05:43:50.579Z,93.98
2023-04-16T05:44:50.578Z,94.08
2023-04-16T05:45:50.606Z,94.18
2023-04-16T05:46:50.554Z,94.18
2023-04-16T05:47:50.657Z,94.18
2023-04-16T05:48:50.542Z,94.29
2023-04-16T05:49:50.552Z,94.29
2023-04-16T05:50:50.532Z,94.29
2023-04-16T05:51:51.066Z,94.29
2023-04-16T05:52:51.505Z,94.18
2023-04-16T05:53:50.487Z,94.29
2023-04-16T05:54:50.491Z,94.08
2023-04-16T05:55:50.483Z,93.67
2023-04-16T05:56:50.478Z,93.26
2023-04-16T05:57:50.459Z,93.98
2023-04-16T05:58:50.436Z,93.98
2023-04-16T05:59:50.435Z,94.39
2023-04-16T06:00:50.450Z,94.49
2023-04-16T06:01:50.443Z,93.87
2023-04-16T06:02:50.499Z,93.87
2023-04-16T06:03:50.500Z,93.26
2023-04-16T06:04:50.413Z,93.21
2023-04-16T06:05:50.431Z,93.77
2023-04-16T06:06:50.373Z,93.87
2023-04-16T06:07:50.347Z,93.36
2023-04-16T06:08:51.440Z,93.26
2023-04-16T06:09:50.338Z,93.98
2023-04-16T06:10:50.340Z,94.08
2023-04-16T06:11:50.307Z,94.18
2023-04-16T06:12:50.302Z,94.24
2023-04-16T06:13:50.290Z,94.08
2023-04-16T06:14:50.274Z,94.18
2023-04-16T06:15:50.321Z,93.67
2023-04-16T06:16:51.259Z,94.39
2023-04-16T06:17:50.301Z,94.80
2023-04-16T06:18:50.241Z,94.70
2023-04-16T06:19:50.227Z,94.59
2023-04-16T06:20:50.244Z,94.80
2023-04-16T06:21:50.208Z,94.74
2023-04-16T06:22:50.202Z,94.90
2023-04-16T06:23:50.203Z,95.31
2023-04-16T06:24:50.177Z,95.62
2023-04-16T06:25:50.192Z,95.93
2023-04-16T06:26:50.179Z,95.83
2023-04-16T06:27:50.151Z,96.14
2023-04-16T06:28:50.152Z,96.55
2023-04-16T06:29:50.128Z,96.48
2023-04-16T06:30:50.148Z,96.18
2023-04-16T06:31:50.165Z,96.59
2023-04-16T06:32:50.123Z,96.55
2023-04-16T06:33:50.097Z,96.55
2023-04-16T06:34:50.080Z,96.65
2023-04-16T06:35:50.089Z,96.34
2023-04-16T06:36:50.064Z,96.55
2023-04-16T06:37:50.053Z,97.10
2023-04-16T06:38:50.040Z,96.90
2023-04-16T06:39:50.029Z,96.95
2023-04-16T06:40:50.032Z,97.31
2023-04-16T06:41:50.014Z,97.47
2023-04-16T06:42:50.014Z,97.47
2023-04-16T06:43:49.996Z,97.27
2023-04-16T06:44:49.984Z,97.27
2023-04-16T06:45:49.985Z,97.31
2023-04-16T06:46:50.012Z,97.00
2023-04-16T06:47:50.003Z,97.41
2023-04-16T06:48:49.936Z,97.52
2023-04-16T06:49:49.950Z,97.31
2023-04-16T06:50:49.941Z,97.72
2023-04-16T06:51:49.914Z,97.31
2023-04-16T06:52:49.908Z,97.31
2023-04-16T06:53:49.908Z,97.62
2023-04-16T06:54:49.886Z,97.31
2023-04-16T06:55:49.890Z,97.10
2023-04-16T06:56:49.863Z,97.31
2023-04-16T06:57:49.862Z,97.62
2023-04-16T06:58:49.857Z,97.62
2023-04-16T06:59:49.848Z,97.62
2023-04-16T07:00:49.876Z,97.20
2023-04-16T07:01:49.896Z,97.87
2023-04-16T07:02:49.923Z,97.72
2023-04-16T07:03:50.078Z,97.41
2023-04-16T07:04:49.796Z,97.66
2023-04-16T07:05:49.809Z,97.36
2023-04-16T07:06:49.772Z,97.45
2023-04-16T07:07:49.764Z,97.25
2023-04-16T07:08:49.744Z,97.20
2023-04-16T07:09:49.741Z,97.56
2023-04-16T07:10:49.745Z,97.05
2023-04-16T07:11:49.723Z,97.56
2023-04-16T07:12:49.714Z,97.56
2023-04-16T07:13:49.696Z,97.56
2023-04-16T07:14:49.694Z,97.56
2023-04-16T07:15:49.698Z,97.45
2023-04-16T07:16:49.765Z,97.25
2023-04-16T07:17:49.733Z,97.36
2023-04-16T07:18:49.650Z,97.25
2023-04-16T07:19:49.633Z,97.77
2023-04-16T07:20:49.652Z,97.45
2023-04-16T07:21:49.614Z,97.56
2023-04-16T07:22:49.622Z,97.56
2023-04-16T07:23:49.602Z,97.45
2023-04-16T07:24:49.593Z,97.36
2023-04-16T07:25:49.601Z,97.36
2023-04-16T07:26:49.592Z,97.77
2023-04-16T07:27:49.562Z,97.56
2023-04-16T07:28:49.556Z,97.77
2023-04-16T07:29:49.535Z,97.97
2023-04-16T07:30:49.534Z,97.66
2023-04-16T07:31:49.592Z,97.77
2023-04-16T07:32:49.542Z,97.56
2023-04-16T07:33:49.500Z,98.07
2023-04-16T07:34:49.485Z,97.56
2023-04-16T07:35:49.497Z,97.97
2023-04-16T07:36:49.477Z,97.92
2023-04-16T07:37:49.453Z,98.28
2023-04-16T07:38:49.459Z,98.07
2023-04-16T07:40:21.346Z,97.77
2023-04-16T07:40:49.459Z,97.87
2023-04-16T07:41:49.422Z,97.97
2023-04-16T07:42:49.419Z,97.97
2023-04-16T07:43:49.400Z,98.59
2023-04-16T07:44:49.384Z,98.22
2023-04-16T07:45:49.425Z,97.87
2023-04-16T07:46:49.428Z,98.18
2023-04-16T07:47:49.421Z,98.22
2023-04-16T07:48:49.356Z,98.53
2023-04-16T07:49:49.349Z,98.53
2023-04-16T07:50:49.365Z,98.27
2023-04-16T07:51:49.339Z,98.43
2023-04-16T07:52:49.318Z,98.84
2023-04-16T07:53:49.312Z,99.05
2023-04-16T07:54:49.307Z,98.63
2023-04-16T07:55:49.311Z,98.53
2023-04-16T07:56:49.284Z,98.43
2023-04-16T07:57:49.261Z,98.79
2023-04-16T07:58:49.259Z,99.81
2023-04-16T07:59:50.118Z,99.91
2023-04-16T08:00:50.892Z,99.71
2023-04-16T08:01:50.307Z,99.30
2023-04-16T08:02:49.454Z,99.40
2023-04-16T08:03:50.329Z,98.79
2023-04-16T08:04:49.415Z,99.40
2023-04-16T08:05:49.215Z,99.25
2023-04-16T08:06:49.185Z,98.99
2023-04-16T08:07:49.165Z,99.19
2023-04-16T08:08:49.168Z,99.71
2023-04-16T08:09:49.145Z,99.81
2023-04-16T08:10:49.158Z,99.99
2023-04-16T08:11:49.263Z,99.99
2023-04-16T08:12:49.122Z,99.99
2023-04-16T08:13:49.127Z,99.51
2023-04-16T08:14:49.144Z,99.99
2023-04-16T08:15:49.178Z,99.97
2023-04-16T08:16:49.120Z,99.99
2023-04-16T08:17:49.125Z,99.81
2023-04-16T08:18:49.072Z,99.99
2023-04-16T08:19:49.052Z,99.99
2023-04-16T08:20:49.053Z,99.81
2023-04-16T08:21:49.099Z,99.51
2023-04-16T08:22:49.073Z,99.51
2023-04-16T08:23:49.050Z,99.86
2023-04-16T08:24:49.010Z,99.99
2023-04-16T08:25:48.993Z,99.99
2023-04-16T08:26:49.005Z,99.99
2023-04-16T08:27:48.985Z,99.99
2023-04-16T08:28:48.972Z,99.99
2023-04-16T08:29:48.963Z,99.99
2023-04-16T08:30:48.946Z,99.99
2023-04-16T08:31:49.111Z,99.99
2023-04-16T08:32:50.210Z,99.99
2023-04-16T08:33:49.919Z,99.99
2023-04-16T08:34:48.913Z,99.99
2023-04-16T08:35:48.895Z,99.99
2023-04-16T08:36:48.920Z,99.99
2023-04-16T08:37:48.873Z,99.99
2023-04-16T08:38:48.863Z,99.99
2023-04-16T08:39:48.862Z,99.99
2023-04-16T08:40:48.870Z,99.99
2023-04-16T08:41:48.860Z,99.99
2023-04-16T08:42:48.828Z,99.99
2023-04-16T08:43:48.819Z,99.99
2023-04-16T08:44:49.349Z,99.99
2023-04-16T08:45:49.804Z,99.99
2023-04-16T08:46:48.821Z,99.99
2023-04-16T08:47:48.828Z,99.99
2023-04-16T08:48:48.779Z,99.99
2023-04-16T08:49:48.763Z,99.99
2023-04-16T08:50:48.771Z,99.99
2023-04-16T08:51:48.737Z,99.99
2023-04-16T08:52:48.728Z,99.99
2023-04-16T08:53:48.711Z,99.99
2023-04-16T08:54:56.714Z,99.99
2023-04-16T08:55:49.708Z,99.99
2023-04-16T08:56:48.687Z,99.99
2023-04-16T08:57:48.691Z,99.99
2023-04-16T08:58:48.678Z,99.99
2023-04-16T08:59:48.655Z,99.99
2023-04-16T09:00:48.676Z,99.99
2023-04-16T09:01:48.693Z,99.99
2023-04-16T09:02:48.864Z,99.99
2023-04-16T09:03:48.794Z,99.99
2023-04-16T09:04:48.641Z,99.99
2023-04-16T09:05:48.610Z,99.99
2023-04-16T09:06:48.579Z,99.99
2023-04-16T09:07:48.587Z,99.99
2023-04-16T09:08:48.569Z,99.99
2023-04-16T09:09:48.558Z,99.99
2023-04-16T09:10:48.593Z,99.99
2023-04-16T09:11:48.560Z,99.99
2023-04-16T09:12:48.518Z,99.99
2023-04-16T09:13:48.519Z,99.99
2023-04-16T09:14:48.498Z,99.99
2023-04-16T09:15:48.513Z,99.99
2023-04-16T09:16:48.482Z,99.99
2023-04-16T09:17:48.515Z,99.99
2023-04-16T09:18:48.463Z,99.99
2023-04-16T09:19:48.464Z,99.99
2023-04-16T09:20:48.465Z,99.99
2023-04-16T09:21:48.450Z,99.99
2023-04-16T09:22:48.427Z,99.99
2023-04-16T09:23:48.416Z,99.99
2023-04-16T09:24:48.409Z,99.99
2023-04-16T09:25:48.417Z,99.99
2023-04-16T09:26:48.385Z,99.99
2023-04-16T09:27:48.383Z,99.99
2023-04-16T09:28:48.369Z,99.99
2023-04-16T09:29:48.366Z,99.99
2023-04-16T09:30:48.341Z,99.99
2023-04-16T09:31:48.422Z,99.99
2023-04-16T09:32:48.361Z,99.99
2023-04-16T09:33:48.321Z,99.99
2023-04-16T09:34:48.312Z,99.99
2023-04-16T09:35:48.309Z,99.99
2023-04-16T09:36:48.352Z,99.99
2023-04-16T09:37:48.281Z,99.99
2023-04-16T09:38:48.270Z,99.99
2023-04-16T09:39:48.279Z,99.99
2023-04-16T09:40:48.258Z,99.99
2023-04-16T09:41:48.327Z,99.99
2023-04-16T09:42:48.225Z,99.99
2023-04-16T09:43:48.221Z,99.99
2023-04-16T09:44:48.219Z,99.99
2023-04-16T09:45:48.278Z,99.99
2023-04-16T09:46:48.216Z,99.99
2023-04-16T09:47:48.195Z,99.99
2023-04-16T09:48:48.178Z,99.99
2023-04-16T09:49:48.171Z,99.99
2023-04-16T09:50:48.156Z,99.99
2023-04-16T09:51:48.172Z,99.99
2023-04-16T09:52:48.140Z,99.99
2023-04-16T09:53:48.132Z,99.99
2023-04-16T09:54:48.126Z,99.99
2023-04-16T09:55:48.111Z,99.99
2023-04-16T09:56:48.120Z,99.99
2023-04-16T09:57:48.093Z,99.99
2023-04-16T09:58:48.089Z,99.99
2023-04-16T09:59:48.073Z,99.99
2023-04-16T10:00:48.061Z,99.99
2023-04-16T10:01:48.153Z,99.99
2023-04-16T10:02:49.287Z,99.99
2023-04-16T10:03:48.123Z,99.99
2023-04-16T10:04:48.118Z,99.99
2023-04-16T10:05:48.016Z,99.99
2023-04-16T10:06:48.054Z,99.99
2023-04-16T10:07:48.010Z,99.99
2023-04-16T10:08:49.659Z,99.99
2023-04-16T10:09:49.024Z,99.99
2023-04-16T10:10:47.969Z,99.99
2023-04-16T10:11:48.012Z,99.62
2023-04-16T10:12:47.946Z,99.93
2023-04-16T10:13:47.943Z,99.47
2023-04-16T10:14:50.018Z,99.99
2023-04-16T10:15:47.975Z,99.77
2023-04-16T10:16:48.012Z,99.37
2023-04-16T10:17:47.938Z,99.99
2023-04-16T10:18:47.894Z,99.47
2023-04-16T10:19:47.905Z,99.21
2023-04-16T10:20:47.897Z,98.91
2023-04-16T10:21:47.912Z,99.21
2023-04-16T10:22:47.859Z,99.07
2023-04-16T10:23:47.846Z,99.73
2023-04-16T10:24:47.827Z,99.52
2023-04-16T10:25:47.825Z,98.35
2023-04-16T10:26:47.841Z,98.66
2023-04-16T10:27:47.798Z,98.76
2023-04-16T10:28:47.790Z,98.35
2023-04-16T10:29:47.788Z,98.55
2023-04-16T10:30:47.822Z,98.55
2023-04-16T10:31:47.785Z,98.14
2023-04-16T10:32:47.760Z,98.14
2023-04-16T10:33:47.732Z,98.14
2023-04-16T10:34:47.724Z,98.14
2023-04-16T10:35:54.975Z,97.94
2023-04-16T10:36:49.740Z,97.83
2023-04-16T10:37:47.700Z,97.53
2023-04-16T10:38:47.749Z,97.53
2023-04-16T10:39:47.676Z,97.32
2023-04-16T10:40:47.659Z,97.32
2023-04-16T10:41:47.666Z,97.32
2023-04-16T10:42:47.643Z,97.53
2023-04-16T10:43:47.634Z,96.81
2023-04-16T10:44:47.629Z,96.70
2023-04-16T10:45:47.645Z,97.02
2023-04-16T10:46:47.634Z,96.87
2023-04-16T10:47:47.641Z,96.97
2023-04-16T10:48:50.152Z,96.87
2023-04-16T10:49:48.568Z,96.77
2023-04-16T10:50:47.561Z,97.07
2023-04-16T10:51:47.597Z,97.32
2023-04-16T10:52:47.544Z,97.28
2023-04-16T10:53:47.525Z,97.02
2023-04-16T10:54:47.522Z,96.66
2023-04-16T10:55:47.513Z,96.77
2023-04-16T10:56:47.533Z,97.17
2023-04-16T10:57:47.488Z,96.45
2023-04-16T10:58:47.481Z,96.87
2023-04-16T10:59:47.460Z,96.15
2023-04-16T11:00:47.462Z,96.51
2023-04-16T11:01:48.687Z,96.15
2023-04-16T11:02:47.613Z,96.62
2023-04-16T11:03:47.719Z,96.31
2023-04-16T11:04:47.560Z,96.00
2023-04-16T11:05:47.410Z,96.62
2023-04-16T11:06:47.419Z,96.31
2023-04-16T11:07:48.923Z,96.31
2023-04-16T11:08:54.664Z,96.31
2023-04-16T11:09:49.384Z,96.51
2023-04-16T11:10:47.361Z,96.41
2023-04-16T11:11:47.375Z,96.62
2023-04-16T11:12:47.438Z,96.51
2023-04-16T11:13:47.348Z,96.51
2023-04-16T11:14:47.368Z,96.10
2023-04-16T11:15:47.373Z,96.10
2023-04-16T11:16:47.322Z,96.31
2023-04-16T11:17:47.336Z,96.31
2023-04-16T11:18:51.506Z,96.31
2023-04-16T11:19:47.301Z,96.31
2023-04-16T11:20:47.261Z,96.62
2023-04-16T11:21:47.286Z,96.62
2023-04-16T11:22:47.263Z,96.41
2023-04-16T11:23:47.231Z,96.62
2023-04-16T11:24:47.232Z,96.41
2023-04-16T11:25:47.221Z,96.31
2023-04-16T11:26:47.238Z,96.41
2023-04-16T11:27:47.197Z,96.51
2023-04-16T11:28:47.182Z,96.37
2023-04-16T11:29:47.664Z,96.26
2023-04-16T11:30:47.171Z,96.20
2023-04-16T11:31:47.268Z,96.37
2023-04-16T11:32:47.189Z,96.57
2023-04-16T11:33:47.135Z,96.26
2023-04-16T11:34:47.122Z,96.37
2023-04-16T11:35:47.116Z,96.26
2023-04-16T11:36:47.121Z,96.37
2023-04-16T11:37:47.100Z,96.47
2023-04-16T11:38:47.089Z,96.06
2023-04-16T11:39:47.095Z,96.31
2023-04-16T11:40:47.084Z,96.16
2023-04-16T11:41:47.095Z,95.49
2023-04-16T11:42:47.046Z,96.20
2023-04-16T11:43:47.049Z,96.41
2023-04-16T11:44:47.035Z,96.31
2023-04-16T11:45:47.028Z,96.06
2023-04-16T11:46:47.140Z,96.10
2023-04-16T11:47:47.053Z,96.00
2023-04-16T11:48:46.991Z,96.41
2023-04-16T11:49:46.976Z,95.86
2023-04-16T11:50:46.981Z,96.10
2023-04-16T11:51:46.956Z,96.20
2023-04-16T11:52:46.973Z,96.37
2023-04-16T11:53:46.958Z,95.95
2023-04-16T11:54:46.936Z,95.95
2023-04-16T11:55:46.924Z,95.69
2023-04-16T11:56:46.927Z,96.10
2023-04-16T11:57:46.932Z,95.39
2023-04-16T11:58:46.908Z,95.18
2023-04-16T12:00:01.812Z,95.39
2023-04-16T12:00:47.888Z,96.10
2023-04-16T12:01:46.880Z,95.90
2023-04-16T12:02:46.956Z,96.20
2023-04-16T12:03:47.193Z,96.10
2023-04-16T12:04:46.896Z,96.10
2023-04-16T12:05:46.860Z,96.10
2023-04-16T12:06:46.856Z,96.20
2023-04-16T12:07:46.794Z,96.31
2023-04-16T12:08:46.781Z,96.62
2023-04-16T12:09:46.797Z,96.51
2023-04-16T12:10:46.873Z,96.51
2023-04-16T12:11:46.772Z,96.31
2023-04-16T12:12:46.748Z,96.41
2023-04-16T12:13:46.733Z,96.31
2023-04-16T12:14:46.728Z,96.31
2023-04-16T12:15:46.762Z,96.41
2023-04-16T12:16:46.782Z,96.31
2023-04-16T12:17:46.744Z,96.37
2023-04-16T12:18:46.732Z,96.26
2023-04-16T12:19:46.691Z,96.57
2023-04-16T12:20:46.713Z,96.16
2023-04-16T12:21:46.684Z,96.10
2023-04-16T12:22:46.652Z,96.16
2023-04-16T12:23:46.632Z,96.16
2023-04-16T12:24:46.616Z,96.06
2023-04-16T12:25:46.618Z,96.01
2023-04-16T12:26:46.632Z,96.22
2023-04-16T12:27:46.657Z,96.22
2023-04-16T12:28:46.588Z,96.01
2023-04-16T12:29:46.576Z,96.01
2023-04-16T12:30:46.573Z,95.40
2023-04-16T12:31:46.583Z,95.50
2023-04-16T12:32:46.576Z,95.61
2023-04-16T12:33:46.568Z,95.40
2023-04-16T12:34:49.349Z,95.09
2023-04-16T12:35:46.525Z,95.03
2023-04-16T12:36:46.563Z,94.52
2023-04-16T12:37:46.517Z,94.93
2023-04-16T12:38:46.476Z,94.77
2023-04-16T12:39:48.053Z,95.03
2023-04-16T12:40:46.463Z,94.98
2023-04-16T12:41:46.474Z,95.07
2023-04-16T12:42:46.479Z,94.77
2023-04-16T12:43:46.441Z,95.18
2023-04-16T12:44:46.434Z,94.98
2023-04-16T12:45:46.505Z,94.73
2023-04-16T12:46:46.617Z,94.15
2023-04-16T12:47:46.420Z,94.87
2023-04-16T12:48:46.385Z,94.98
2023-04-16T12:49:46.360Z,94.46
2023-04-16T12:50:46.361Z,94.56
2023-04-16T12:51:46.346Z,94.73
2023-04-16T12:52:46.354Z,94.77